Time;durP1;ratioP1;P1;durP2;ratioP2;P2;SDS_P1;SDS_P2;PMS_P1;PMS_P2;Temp;Humidity;BMP_temperature;BMP_pressure;BME280_temperature;BME280_humidity;BME280_pressure;Samples;Min_cycle;Max_cycle;Signal;HPM_P1;HPM_P2
2021/05/05 00:00:12;;;;;;;4.00;2.83;;;11.90;99.90;;;;;;5071252;28;20025;-72
2021/05/05 00:02:39;;;;;;;3.03;1.95;;;11.90;99.90;;;;;;5071547;28;20052;-73
2021/05/05 00:05:05;;;;;;;3.95;2.50;;;11.90;99.90;;;;;;5071526;28;20090;-73
2021/05/05 00:07:30;;;;;;;4.90;2.17;;;11.80;99.90;;;;;;5071575;28;20013;-73
2021/05/05 00:09:56;;;;;;;3.03;2.17;;;11.80;99.90;;;;;;5071717;28;20024;-73
2021/05/05 00:12:21;;;;;;;2.83;1.88;;;11.80;99.90;;;;;;5071403;28;20060;-73
2021/05/05 00:14:47;;;;;;;5.35;2.78;;;11.80;99.90;;;;;;5070808;28;20082;-73
2021/05/05 00:17:12;;;;;;;3.58;2.55;;;11.80;99.90;;;;;;5054108;28;20437;-73
2021/05/05 00:19:38;;;;;;;5.72;2.40;;;11.80;99.90;;;;;;5075775;28;20048;-73
2021/05/05 00:22:04;;;;;;;3.15;2.38;;;11.70;99.90;;;;;;5071173;28;20087;-73
2021/05/05 00:24:29;;;;;;;4.65;2.50;;;11.60;99.90;;;;;;5071051;28;20358;-73
2021/05/05 00:26:55;;;;;;;9.57;2.83;;;11.60;99.90;;;;;;5070116;28;20037;-73
2021/05/05 00:29:20;;;;;;;3.53;2.60;;;11.50;99.90;;;;;;5070970;28;20033;-73
2021/05/05 00:31:46;;;;;;;4.55;2.30;;;11.50;99.90;;;;;;5074323;28;20469;-72
2021/05/05 00:34:12;;;;;;;3.53;2.10;;;11.40;99.90;;;;;;5070798;28;20043;-73
2021/05/05 00:36:37;;;;;;;3.42;2.22;;;11.40;99.90;;;;;;5070570;28;20102;-73
2021/05/05 00:39:05;;;;;;;4.00;2.30;;;11.30;99.90;;;;;;5070626;28;20110;-73
2021/05/05 00:41:30;;;;;;;4.38;2.58;;;11.30;99.90;;;;;;5070728;28;20025;-73
2021/05/05 00:43:56;;;;;;;4.03;2.33;;;11.20;99.90;;;;;;5052681;28;20050;-73
2021/05/05 00:46:22;;;;;;;5.22;2.55;;;11.20;99.90;;;;;;5070659;28;20028;-73
2021/05/05 00:48:47;;;;;;;3.42;2.40;;;11.20;99.90;;;;;;5070730;28;20032;-73
2021/05/05 00:51:13;;;;;;;2.85;2.30;;;11.10;99.90;;;;;;5070754;28;20021;-73
2021/05/05 00:53:40;;;;;;;4.65;2.42;;;11.10;99.90;;;;;;5070305;28;20154;-73
2021/05/05 00:56:06;;;;;;;5.85;2.58;;;11.10;99.90;;;;;;5070582;28;20408;-73
2021/05/05 00:58:33;;;;;;;4.07;2.45;;;11.10;99.90;;;;;;5070501;28;20038;-73
2021/05/05 01:00:58;;;;;;;7.20;2.80;;;11.00;99.90;;;;;;5056825;28;20020;-73
2021/05/05 01:03:24;;;;;;;4.82;2.90;;;11.00;99.90;;;;;;5070239;28;20467;-73
2021/05/05 01:05:50;;;;;;;4.18;2.90;;;11.10;99.90;;;;;;5070263;28;20025;-73
2021/05/05 01:08:19;;;;;;;3.72;2.75;;;11.00;99.90;;;;;;5070253;28;20028;-73
2021/05/05 01:10:45;;;;;;;4.20;3.17;;;11.00;99.90;;;;;;5070128;28;20017;-73
2021/05/05 01:13:12;;;;;;;5.55;3.28;;;11.00;99.90;;;;;;5070294;28;20020;-73
2021/05/05 01:15:38;;;;;;;5.65;3.33;;;10.90;99.90;;;;;;5070006;28;20031;-73
2021/05/05 01:18:04;;;;;;;5.65;3.25;;;10.90;99.90;;;;;;5074101;28;20393;-73
2021/05/05 01:20:30;;;;;;;4.22;3.30;;;10.90;99.90;;;;;;5070132;28;20032;-73
2021/05/05 01:22:56;;;;;;;4.63;2.90;;;11.00;99.90;;;;;;5070109;28;20025;-73
2021/05/05 01:25:22;;;;;;;4.80;3.40;;;11.00;99.90;;;;;;5070043;28;20428;-73
2021/05/05 01:27:48;;;;;;;4.47;3.13;;;10.90;99.90;;;;;;5069734;28;20044;-73
2021/05/05 01:30:16;;;;;;;4.67;3.40;;;10.90;99.90;;;;;;5069667;28;20388;-73
2021/05/05 01:32:42;;;;;;;5.13;3.30;;;10.90;99.90;;;;;;5070959;28;20108;-73
2021/05/05 01:35:11;;;;;;;5.03;3.67;;;10.90;99.90;;;;;;5069604;28;20120;-73
2021/05/05 01:37:37;;;;;;;4.47;3.35;;;10.80;99.90;;;;;;5069658;28;20500;-73
2021/05/05 01:40:06;;;;;;;4.35;3.55;;;10.80;99.90;;;;;;5069486;28;20090;-73
2021/05/05 01:42:32;;;;;;;5.40;3.27;;;10.70;99.90;;;;;;5069789;28;20110;-73
2021/05/05 01:44:58;;;;;;;4.20;3.53;;;10.70;99.90;;;;;;5069487;28;20028;-73
2021/05/05 01:47:24;;;;;;;4.67;3.50;;;10.60;99.90;;;;;;5069811;28;20030;-73
2021/05/05 01:49:49;;;;;;;4.13;3.50;;;10.70;99.90;;;;;;5069380;28;20491;-73
2021/05/05 01:52:17;;;;;;;5.00;3.93;;;10.60;99.90;;;;;;5069715;28;20029;-73
2021/05/05 01:54:43;;;;;;;4.97;3.40;;;10.60;99.90;;;;;;5069737;28;20020;-73
2021/05/05 01:57:37;;;;;;;6.13;3.90;;;10.60;99.90;;;;;;5069015;28;20039;-73
2021/05/05 02:00:12;;;;;;;6.80;3.87;;;10.60;99.90;;;;;;5069276;28;20059;-73
2021/05/05 02:02:38;;;;;;;6.40;5.05;;;10.60;99.90;;;;;;5069878;28;20124;-73
2021/05/05 02:05:05;;;;;;;7.63;4.17;;;10.70;99.90;;;;;;5069445;28;20379;-73
2021/05/05 02:07:31;;;;;;;5.03;4.03;;;10.70;99.90;;;;;;5069578;28;20016;-73
2021/05/05 02:09:57;;;;;;;5.37;4.23;;;10.60;99.90;;;;;;5069499;28;20016;-73
2021/05/05 02:12:22;;;;;;;4.40;3.40;;;10.60;99.90;;;;;;5069019;28;20078;-73
2021/05/05 02:14:48;;;;;;;5.93;3.80;;;10.80;99.90;;;;;;5069427;28;20051;-73
2021/05/05 02:17:15;;;;;;;4.33;3.70;;;10.80;99.90;;;;;;5073822;28;20160;-73
2021/05/05 02:19:41;;;;;;;5.87;3.70;;;10.70;99.90;;;;;;5070898;28;20073;-74
2021/05/05 02:22:07;;;;;;;6.97;3.77;;;10.70;99.90;;;;;;5069206;28;20355;-73
2021/05/05 02:24:33;;;;;;;5.33;4.27;;;10.60;99.90;;;;;;5051234;28;20025;-73
2021/05/05 02:26:58;;;;;;;6.00;3.80;;;10.50;99.90;;;;;;5068907;28;20093;-73
2021/05/05 02:29:24;;;;;;;8.17;4.17;;;10.50;99.90;;;;;;5069187;28;20024;-73
2021/05/05 02:31:50;;;;;;;5.63;4.23;;;10.40;99.90;;;;;;5052655;28;20025;-73
2021/05/05 02:34:16;;;;;;;5.70;4.10;;;10.40;99.90;;;;;;5068773;28;20120;-73
2021/05/05 02:36:42;;;;;;;6.20;4.00;;;10.30;99.90;;;;;;5068764;28;20120;-73
2021/05/05 02:39:10;;;;;;;4.80;3.77;;;10.40;99.90;;;;;;5050584;28;20024;-73
2021/05/05 02:41:37;;;;;;;4.50;3.63;;;10.40;99.90;;;;;;5068825;28;20009;-73
2021/05/05 02:44:04;;;;;;;5.87;3.37;;;10.30;99.90;;;;;;5067721;28;20495;-73
2021/05/05 02:46:30;;;;;;;5.37;4.33;;;10.30;99.90;;;;;;5068646;28;20030;-72
2021/05/05 02:48:56;;;;;;;4.93;3.97;;;10.30;99.90;;;;;;5068687;28;20017;-73
2021/05/05 02:51:21;;;;;;;7.10;3.77;;;10.30;99.90;;;;;;5071413;28;20473;-73
2021/05/05 02:53:47;;;;;;;7.60;4.00;;;10.20;99.90;;;;;;5054933;28;20062;-73
2021/05/05 02:56:12;;;;;;;5.83;4.23;;;10.20;99.90;;;;;;5072444;28;20016;-73
2021/05/05 02:58:38;;;;;;;4.10;3.53;;;10.20;99.90;;;;;;5072803;28;20853;-73
2021/05/05 03:01:03;;;;;;;6.03;3.50;;;10.10;99.90;;;;;;5072443;28;20032;-73
2021/05/05 03:03:29;;;;;;;4.83;3.70;;;10.10;99.90;;;;;;5072094;28;20530;-73
2021/05/05 03:05:54;;;;;;;5.07;3.50;;;10.20;99.90;;;;;;5072275;28;20109;-73
2021/05/05 03:08:20;;;;;;;6.17;3.90;;;10.10;99.90;;;;;;5072044;28;20059;-73
2021/05/05 03:10:47;;;;;;;6.03;3.97;;;10.10;99.90;;;;;;5071779;28;20025;-73
2021/05/05 03:13:12;;;;;;;6.17;4.37;;;10.10;99.90;;;;;;5071850;28;20032;-73
2021/05/05 03:15:38;;;;;;;4.40;3.63;;;10.10;99.90;;;;;;5071623;28;20020;-74
2021/05/05 03:18:04;;;;;;;8.47;4.10;;;10.10;99.90;;;;;;5078209;28;20056;-73
2021/05/05 03:20:29;;;;;;;5.23;3.90;;;10.00;99.90;;;;;;5053825;28;20028;-73
2021/05/05 03:22:55;;;;;;;4.20;3.77;;;10.00;99.90;;;;;;5071834;28;20035;-73
2021/05/05 03:25:20;;;;;;;6.00;3.77;;;9.90;99.90;;;;;;5071635;28;20942;-73
2021/05/05 03:27:46;;;;;;;7.07;4.00;;;9.90;99.90;;;;;;5053950;28;20489;-73
2021/05/05 03:30:12;;;;;;;4.13;3.70;;;9.90;99.90;;;;;;5071858;28;20049;-73
2021/05/05 03:32:38;;;;;;;5.00;3.53;;;9.90;99.90;;;;;;5073012;28;20146;-73
2021/05/05 03:35:04;;;;;;;5.03;4.20;;;9.80;99.90;;;;;;5071452;28;20529;-73
2021/05/05 03:37:30;;;;;;;5.67;3.80;;;9.90;99.90;;;;;;5071621;28;20047;-73
2021/05/05 03:39:56;;;;;;;5.67;3.97;;;9.90;99.90;;;;;;5071630;28;20025;-73
2021/05/05 03:42:22;;;;;;;6.33;4.33;;;9.80;99.90;;;;;;5071782;28;20090;-73
2021/05/05 03:44:47;;;;;;;6.10;4.50;;;9.80;99.90;;;;;;5071524;28;20020;-73
2021/05/05 03:47:13;;;;;;;5.67;4.60;;;9.90;99.90;;;;;;5071626;28;20029;-73
2021/05/05 03:49:38;;;;;;;6.83;4.53;;;9.90;99.90;;;;;;5071773;28;20032;-73
2021/05/05 03:52:04;;;;;;;8.87;5.13;;;9.80;99.90;;;;;;5071419;28;20033;-73
2021/05/05 03:54:30;;;;;;;5.60;5.10;;;9.70;99.90;;;;;;5071357;28;20402;-73
2021/05/05 03:56:55;;;;;;;8.27;5.67;;;9.70;99.90;;;;;;5071462;28;20020;-74
2021/05/05 03:59:21;;;;;;;8.07;5.40;;;9.70;99.90;;;;;;5071247;28;20112;-73
2021/05/05 04:01:46;;;;;;;8.13;5.40;;;9.70;99.90;;;;;;5070381;28;20051;-73
2021/05/05 04:04:12;;;;;;;7.57;5.90;;;9.60;99.90;;;;;;5071488;28;20033;-73
2021/05/05 04:06:38;;;;;;;7.63;5.87;;;9.60;99.90;;;;;;5071507;28;20028;-73
2021/05/05 04:09:04;;;;;;;7.33;5.83;;;9.60;99.90;;;;;;5071258;28;20039;-73
2021/05/05 04:11:29;;;;;;;7.17;5.70;;;9.70;99.90;;;;;;5071624;28;20021;-73
2021/05/05 04:13:55;;;;;;;7.90;6.00;;;9.60;99.90;;;;;;5071278;28;20362;-73
2021/05/05 04:16:21;;;;;;;6.40;4.97;;;9.50;99.90;;;;;;5071079;28;20028;-73
2021/05/05 04:18:46;;;;;;;2.67;1.70;;;9.50;99.90;;;;;;5075959;28;20033;-73
2021/05/05 04:21:12;;;;;;;2.53;1.60;;;9.30;99.90;;;;;;5071198;28;20032;-73
2021/05/05 04:23:39;;;;;;;1.63;1.20;;;9.00;99.90;;;;;;5071113;28;20064;-73
2021/05/05 04:26:08;;;;;;;7.60;4.70;;;8.80;99.90;;;;;;5070734;28;20437;-73
2021/05/05 04:28:35;;;;;;;2.17;1.43;;;8.60;99.90;;;;;;5071662;28;20083;-68
2021/05/05 04:31:00;;;;;;;4.43;1.57;;;8.20;99.90;;;;;;5050875;28;20033;-74
2021/05/05 04:33:26;;;;;;;3.77;2.53;;;8.00;99.90;;;;;;5072337;28;20056;-73
2021/05/05 04:35:52;;;;;;;3.23;2.23;;;7.90;99.90;;;;;;5071103;28;20042;-73
2021/05/05 04:38:17;;;;;;;9.70;6.07;;;7.80;99.90;;;;;;5052255;28;20040;-73
2021/05/05 04:40:43;;;;;;;11.40;7.20;;;7.70;99.90;;;;;;5070219;28;20099;-73
2021/05/05 04:43:08;;;;;;;16.93;10.23;;;7.70;99.90;;;;;;5070215;28;20386;-73
2021/05/05 04:45:34;;;;;;;6.63;3.30;;;7.60;99.90;;;;;;5070332;28;20361;-73
2021/05/05 04:48:00;;;;;;;63.10;23.90;;;7.40;99.90;;;;;;5069740;28;20059;-74
2021/05/05 04:50:26;;;;;;;4.97;2.60;;;7.40;99.90;;;;;;5069894;28;20102;-67
2021/05/05 04:52:52;;;;;;;3.90;1.60;;;7.30;99.90;;;;;;5069057;28;20028;-68
2021/05/05 04:55:18;;;;;;;5.63;2.47;;;7.20;99.90;;;;;;5070656;28;20021;-73
2021/05/05 04:57:44;;;;;;;4.00;2.10;;;7.20;99.90;;;;;;5067753;28;20234;-73
2021/05/05 05:00:10;;;;;;;4.50;2.20;;;7.10;99.90;;;;;;5068919;28;20572;-73
2021/05/05 05:02:36;;;;;;;4.43;2.17;;;7.00;99.90;;;;;;5064030;28;20032;-73
2021/05/05 05:05:04;;;;;;;3.37;1.60;;;7.00;99.90;;;;;;5069908;28;20048;-73
2021/05/05 05:07:30;;;;;;;4.57;1.50;;;7.00;99.90;;;;;;5068274;28;20017;-73
2021/05/05 05:09:57;;;;;;;4.97;2.43;;;6.90;99.90;;;;;;5070375;28;20035;-73
2021/05/05 05:12:23;;;;;;;2.60;1.23;;;6.90;99.90;;;;;;5069905;28;20820;-73
2021/05/05 05:14:48;;;;;;;5.63;1.70;;;6.90;99.90;;;;;;5069444;28;20025;-73
2021/05/05 05:17:14;;;;;;;6.87;2.40;;;6.80;99.90;;;;;;5073091;28;20027;-73
2021/05/05 05:19:39;;;;;;;2.47;1.70;;;6.80;99.90;;;;;;5070202;28;20055;-74
2021/05/05 05:22:05;;;;;;;4.40;1.40;;;6.70;99.90;;;;;;5069307;28;20032;-79
2021/05/05 05:24:30;;;;;;;5.10;1.50;;;6.60;99.90;;;;;;5051692;28;20043;-79
2021/05/05 05:26:56;;;;;;;2.40;1.43;;;6.50;99.90;;;;;;5068626;28;21677;-75
2021/05/05 05:29:22;;;;;;;4.43;1.73;;;6.40;99.90;;;;;;5068627;28;20560;-74
2021/05/05 05:31:48;;;;;;;4.90;1.73;;;6.40;99.90;;;;;;5069559;28;20102;-75
2021/05/05 05:34:14;;;;;;;4.83;1.60;;;6.30;99.90;;;;;;5068619;28;20120;-75
2021/05/05 05:36:40;;;;;;;5.77;1.50;;;6.30;99.90;;;;;;5069053;28;20426;-74
2021/05/05 05:39:06;;;;;;;7.23;2.07;;;6.40;99.90;;;;;;5069449;28;20025;-73
2021/05/05 05:41:32;;;;;;;5.27;2.53;;;6.30;99.90;;;;;;5069256;28;20115;-76
2021/05/05 05:43:58;;;;;;;3.60;1.90;;;6.20;99.90;;;;;;5069641;28;20028;-76
2021/05/05 05:46:23;;;;;;;4.20;1.50;;;6.40;99.90;;;;;;5068871;28;20067;-80
2021/05/05 05:48:49;;;;;;;3.87;1.30;;;6.30;99.90;;;;;;5066558;28;20381;-75
2021/05/05 05:51:14;;;;;;;2.53;1.40;;;6.30;99.90;;;;;;5067341;28;20130;-75
2021/05/05 05:53:40;;;;;;;4.50;2.00;;;6.20;99.90;;;;;;5048345;28;20422;-81
2021/05/05 05:56:06;;;;;;;5.50;2.03;;;6.20;99.90;;;;;;5065607;28;20480;-75
2021/05/05 05:58:32;;;;;;;4.80;1.93;;;6.10;99.90;;;;;;5065636;28;20067;-75
2021/05/05 06:00:57;;;;;;;4.03;2.13;;;6.10;99.90;;;;;;5065432;28;20756;-75
2021/05/05 06:03:24;;;;;;;4.90;2.03;;;6.10;99.90;;;;;;5065868;28;20057;-75
2021/05/05 06:05:49;;;;;;;4.67;1.80;;;6.10;99.90;;;;;;5048622;28;20028;-75
2021/05/05 06:08:15;;;;;;;3.33;2.00;;;6.00;99.90;;;;;;5065501;28;20033;-76
2021/05/05 06:10:41;;;;;;;5.53;2.03;;;6.00;99.90;;;;;;5065017;28;20048;-76
2021/05/05 06:13:06;;;;;;;6.43;2.00;;;6.10;99.90;;;;;;5065084;28;20489;-76
2021/05/05 06:15:32;;;;;;;6.90;2.07;;;6.10;99.90;;;;;;5065076;28;20142;-76
2021/05/05 06:17:58;;;;;;;4.23;1.67;;;6.10;99.90;;;;;;5051276;28;20115;-76
2021/05/05 06:20:23;;;;;;;3.43;1.60;;;6.10;99.90;;;;;;5064197;28;20071;-76
2021/05/05 06:22:49;;;;;;;2.30;1.53;;;6.10;99.90;;;;;;5066237;28;20028;-88
2021/05/05 06:25:15;;;;;;;3.83;1.90;;;6.10;99.90;;;;;;5061885;28;20456;-74
2021/05/05 06:27:40;;;;;;;4.03;1.53;;;6.10;99.90;;;;;;5070046;28;20044;-74
2021/05/05 06:30:08;;;;;;;3.77;1.50;;;6.00;99.90;;;;;;5064028;28;20043;-74
2021/05/05 06:32:35;;;;;;;4.50;1.50;;;6.00;99.90;;;;;;5072403;28;20073;-83
2021/05/05 06:35:01;;;;;;;3.00;1.30;;;5.90;99.90;;;;;;5070134;28;20494;-75
2021/05/05 06:37:26;;;;;;;2.17;1.40;;;5.90;99.90;;;;;;5054517;28;20103;-93
2021/05/05 06:39:53;;;;;;;3.33;1.20;;;5.90;99.90;;;;;;5072946;28;20032;-82
2021/05/05 06:42:20;;;;;;;2.77;1.37;;;5.90;99.90;;;;;;5071702;28;20112;-78
2021/05/05 06:44:45;;;;;;;3.47;1.60;;;5.90;99.90;;;;;;5070280;28;20028;-79
2021/05/05 06:47:11;;;;;;;2.37;1.37;;;6.00;99.90;;;;;;5071353;28;20064;-80
2021/05/05 06:49:37;;;;;;;3.87;1.33;;;6.00;99.90;;;;;;5071233;28;20040;-81
2021/05/05 06:52:03;;;;;;;2.57;1.30;;;6.00;99.90;;;;;;5070698;28;20036;-76
2021/05/05 06:54:28;;;;;;;3.73;1.40;;;6.10;99.90;;;;;;5072556;28;20021;-80
2021/05/05 06:56:54;;;;;;;3.00;1.13;;;6.20;99.90;;;;;;5073668;28;20089;-79
2021/05/05 06:59:20;;;;;;;2.33;1.33;;;6.20;99.90;;;;;;5073037;28;20032;-80
2021/05/05 07:01:45;;;;;;;2.63;1.20;;;6.20;99.90;;;;;;5058194;28;20580;-79
2021/05/05 07:04:11;;;;;;;4.50;1.33;;;6.10;99.90;;;;;;5073826;28;20572;-79
2021/05/05 07:06:37;;;;;;;3.70;1.40;;;6.20;99.90;;;;;;5069940;28;20025;-79
2021/05/05 07:09:07;;;;;;;2.37;1.40;;;6.30;99.90;;;;;;5070776;28;20111;-79
2021/05/05 07:11:36;;;;;;;3.07;1.23;;;6.40;99.90;;;;;;5073356;28;20091;-79
2021/05/05 07:14:02;;;;;;;2.50;1.37;;;6.40;99.90;;;;;;5072854;28;20021;-79
2021/05/05 07:16:28;;;;;;;2.20;1.20;;;6.50;99.90;;;;;;5072543;28;20409;-78
2021/05/05 07:18:53;;;;;;;4.30;1.80;;;6.50;99.90;;;;;;5077100;28;20032;-79
2021/05/05 07:21:19;;;;;;;2.17;1.50;;;6.60;99.90;;;;;;5082180;28;20020;-80
2021/05/05 07:23:45;;;;;;;2.13;1.20;;;6.40;99.90;;;;;;5073830;28;20040;-79
2021/05/05 07:26:11;;;;;;;4.37;1.30;;;6.50;99.90;;;;;;5073230;28;20062;-79
2021/05/05 07:28:38;;;;;;;2.97;1.40;;;6.60;99.90;;;;;;5072194;28;20410;-79
2021/05/05 07:31:04;;;;;;;1.83;1.20;;;6.70;99.90;;;;;;5072648;28;20032;-84
2021/05/05 07:33:30;;;;;;;3.10;1.30;;;6.90;99.90;;;;;;5072579;28;20025;-84
2021/05/05 07:35:57;;;;;;;1.77;1.00;;;7.00;99.90;;;;;;5070979;28;20727;-84
2021/05/05 07:46:33;;;;;;;2.23;1.10;;;7.20;99.90;;;;;;5073224;28;20384;-81
2021/05/05 07:49:02;;;;;;;2.07;1.10;;;7.30;99.90;;;;;;5072074;28;20024;-86
2021/05/05 07:51:28;;;;;;;1.70;1.30;;;7.40;99.90;;;;;;5071036;28;20035;-78
2021/05/05 07:53:54;;;;;;;1.50;1.10;;;7.80;99.90;;;;;;5070807;28;20024;-89
2021/05/05 07:56:19;;;;;;;1.40;0.93;;;8.10;99.90;;;;;;5070314;28;20090;-76
2021/05/05 07:58:45;;;;;;;1.80;1.00;;;8.30;99.90;;;;;;5069178;28;20028;-75
2021/05/05 08:01:12;;;;;;;1.10;0.80;;;8.20;99.90;;;;;;5069149;28;20028;-76
2021/05/05 08:03:39;;;;;;;2.47;0.97;;;8.10;99.90;;;;;;5069728;28;20032;-74
2021/05/05 08:06:05;;;;;;;1.67;1.00;;;8.30;99.90;;;;;;5069003;28;20029;-75
2021/05/05 08:08:31;;;;;;;1.33;0.90;;;8.30;99.90;;;;;;5057750;28;20124;-75
2021/05/05 08:10:57;;;;;;;1.37;0.83;;;8.40;99.90;;;;;;5069108;28;20036;-75
2021/05/05 08:13:23;;;;;;;1.83;0.83;;;8.30;99.90;;;;;;5069218;28;20036;-75
2021/05/05 08:15:49;;;;;;;1.43;0.87;;;8.50;99.90;;;;;;5069078;28;20024;-75
2021/05/05 08:18:14;;;;;;;0.97;0.90;;;8.50;99.90;;;;;;5062622;28;20122;-75
2021/05/05 08:20:42;;;;;;;1.13;0.80;;;8.70;99.90;;;;;;5065404;28;20032;-75
2021/05/05 08:23:09;;;;;;;0.80;0.80;;;8.60;99.90;;;;;;5067228;28;20039;-75
2021/05/05 08:25:35;;;;;;;1.13;0.80;;;8.80;99.90;;;;;;5058069;28;20358;-75
2021/05/05 08:28:01;;;;;;;1.73;0.77;;;8.80;99.90;;;;;;5036924;28;20049;-75
2021/05/05 08:30:27;;;;;;;0.80;0.73;;;9.00;99.90;;;;;;5035838;28;20432;-75
2021/05/05 08:32:53;;;;;;;1.93;0.80;;;9.00;99.90;;;;;;5057647;28;20043;-75
2021/05/05 08:35:18;;;;;;;3.43;1.00;;;8.90;99.90;;;;;;5060930;28;20028;-75
2021/05/05 08:37:48;;;;;;;0.80;0.80;;;8.80;99.90;;;;;;5066554;28;20028;-75
2021/05/05 08:40:14;;;;;;;0.70;0.70;;;8.80;99.90;;;;;;5064462;28;20054;-76
2021/05/05 08:42:43;;;;;;;1.27;0.90;;;8.70;99.90;;;;;;5067171;28;20596;-76
2021/05/05 08:45:14;;;;;;;0.90;0.90;;;8.50;99.90;;;;;;5066700;28;20033;-76
2021/05/05 08:47:45;;;;;;;1.07;0.80;;;8.30;99.90;;;;;;5068059;28;20135;-75
2021/05/05 08:50:13;;;;;;;2.23;1.00;;;8.20;99.90;;;;;;5067834;28;20465;-75
2021/05/05 08:52:39;;;;;;;1.43;1.10;;;8.30;99.90;;;;;;5068075;28;20500;-75
2021/05/05 08:55:07;;;;;;;1.50;0.90;;;8.30;99.90;;;;;;5068011;28;20082;-75
2021/05/05 08:57:33;;;;;;;1.50;1.00;;;8.50;99.90;;;;;;5068081;28;20024;-75
2021/05/05 09:00:00;;;;;;;1.77;1.23;;;8.70;99.90;;;;;;5066726;28;20077;-76
2021/05/05 09:02:27;;;;;;;1.67;1.10;;;9.00;99.90;;;;;;5067698;28;20043;-76
2021/05/05 09:05:08;;;;;;;1.73;1.20;;;9.20;99.90;;;;;;5069223;28;20052;-75
2021/05/05 09:07:36;;;;;;;2.50;1.20;;;9.20;99.90;;;;;;5061183;28;20047;-75
2021/05/05 09:10:23;;;;;;;2.00;1.27;;;9.00;99.90;;;;;;5071044;28;20047;-83
2021/05/05 09:12:54;;;;;;;1.73;1.00;;;8.80;99.90;;;;;;5056946;28;20043;-82
2021/05/05 09:15:24;;;;;;;1.83;1.17;;;8.60;99.90;;;;;;5067536;28;20152;-76
2021/05/05 09:17:53;;;;;;;2.10;1.30;;;8.20;99.90;;;;;;5072446;28;20444;-76
2021/05/05 09:20:27;;;;;;;3.20;1.50;;;8.20;99.90;;;;;;5049726;28;20032;-76
2021/05/05 09:22:56;;;;;;;2.85;1.40;;;8.10;99.90;;;;;;5066747;28;20039;-76
2021/05/05 09:25:31;;;;;;;3.30;1.40;;;8.10;99.90;;;;;;5050146;28;20036;-77
2021/05/05 09:28:26;;;;;;;3.25;1.50;;;8.00;99.90;;;;;;5067656;28;20071;-76
2021/05/05 09:30:54;;;;;;;3.60;1.47;;;7.90;99.90;;;;;;5054481;28;20524;-77
2021/05/05 09:33:32;;;;;;;1.77;1.40;;;8.00;99.90;;;;;;5049377;28;20040;-77
2021/05/05 09:36:05;;;;;;;6.03;1.47;;;8.30;99.90;;;;;;5067414;28;20021;-77
2021/05/05 09:38:49;;;;;;;2.60;1.60;;;8.30;99.90;;;;;;5058312;28;20017;-83
2021/05/05 09:41:17;;;;;;;2.50;1.70;;;8.50;99.90;;;;;;5069368;28;20033;-83
2021/05/05 09:43:42;;;;;;;3.57;1.60;;;8.70;99.90;;;;;;5069655;28;20020;-83
2021/05/05 09:46:42;;;;;;;3.37;1.70;;;8.90;99.90;;;;;;5069244;28;20478;-83
2021/05/05 09:49:24;;;;;;;2.93;1.40;;;8.90;99.90;;;;;;5069896;28;20369;-83
2021/05/05 09:51:59;;;;;;;1.60;1.43;;;9.10;99.90;;;;;;5069285;28;20070;-82
2021/05/05 09:54:28;;;;;;;2.38;1.50;;;9.10;99.90;;;;;;5068011;28;20021;-77
2021/05/05 09:57:06;;;;;;;3.40;1.80;;;9.30;99.90;;;;;;5048797;28;20380;-77
2021/05/05 09:59:32;;;;;;;3.03;1.53;;;9.60;99.90;;;;;;5051669;28;20111;-77
2021/05/05 10:02:01;;;;;;;4.30;1.87;;;9.60;99.90;;;;;;5051813;28;20199;-77
2021/05/05 10:04:27;;;;;;;2.73;1.47;;;9.60;99.90;;;;;;5051791;28;20128;-76
2021/05/05 10:07:00;;;;;;;2.40;1.30;;;9.40;99.90;;;;;;5062576;28;20099;-69
2021/05/05 10:09:26;;;;;;;2.47;1.20;;;9.10;99.90;;;;;;5066339;28;20045;-76
2021/05/05 10:11:52;;;;;;;1.43;1.10;;;9.10;99.90;;;;;;5056998;28;20778;-76
2021/05/05 10:14:20;;;;;;;2.70;1.00;;;9.00;99.90;;;;;;5066074;28;20052;-76
2021/05/05 10:16:49;;;;;;;1.20;1.10;;;9.00;99.90;;;;;;5067263;28;20059;-75
2021/05/05 10:19:26;;;;;;;2.07;0.97;;;8.80;99.90;;;;;;5053957;28;20094;-76
2021/05/05 10:21:53;;;;;;;2.10;0.90;;;8.90;99.90;;;;;;5067576;28;20036;-78
2021/05/05 10:24:21;;;;;;;2.83;1.00;;;8.60;99.90;;;;;;5065781;28;20099;-73
2021/05/05 10:26:47;;;;;;;2.53;1.00;;;8.60;99.90;;;;;;5065633;28;20052;-72
2021/05/05 10:29:14;;;;;;;1.03;0.90;;;8.40;99.90;;;;;;5065889;28;20111;-73
2021/05/05 10:31:41;;;;;;;4.77;1.50;;;8.30;99.90;;;;;;5067774;28;20470;-73
2021/05/05 10:34:18;;;;;;;4.87;2.07;;;8.20;99.90;;;;;;5066337;28;20381;-73
2021/05/05 10:36:55;;;;;;;7.40;2.40;;;7.90;99.90;;;;;;5066552;28;20048;-72
2021/05/05 10:39:21;;;;;;;5.90;1.97;;;7.50;99.90;;;;;;5066186;28;20570;-73
2021/05/05 10:42:02;;;;;;;7.83;2.00;;;7.10;99.90;;;;;;5049670;28;20587;-72
2021/05/05 10:44:47;;;;;;;5.50;2.03;;;6.90;99.90;;;;;;5066225;28;20104;-73
2021/05/05 10:47:24;;;;;;;4.65;2.08;;;6.70;99.90;;;;;;5060551;28;20024;-71
2021/05/05 10:49:59;;;;;;;7.37;2.23;;;6.60;99.90;;;;;;5061280;28;20032;-69
2021/05/05 10:52:29;;;;;;;7.25;1.95;;;6.60;99.90;;;;;;5062391;28;20538;-71
2021/05/05 10:54:57;;;;;;;6.90;2.13;;;6.60;99.90;;;;;;5066166;28;20024;-66
2021/05/05 10:57:25;;;;;;;7.80;2.20;;;6.40;99.90;;;;;;5065740;28;20029;-75
2021/05/05 10:59:57;;;;;;;5.50;2.07;;;6.20;99.90;;;;;;5065939;28;20477;-75
2021/05/05 11:02:47;;;;;;;8.00;2.37;;;6.30;99.90;;;;;;5052165;28;20530;-75
2021/05/05 11:05:31;;;;;;;4.73;1.97;;;6.40;99.90;;;;;;5061960;28;20040;-74
2021/05/05 11:08:05;;;;;;;6.00;1.70;;;6.40;99.90;;;;;;5064957;28;20025;-75
2021/05/05 11:10:37;;;;;;;5.97;2.10;;;6.50;99.90;;;;;;5064775;28;20436;-75
2021/05/05 11:13:03;;;;;;;6.23;1.70;;;6.40;99.90;;;;;;5069820;28;20050;-75
2021/05/05 11:15:41;;;;;;;5.60;1.70;;;6.50;99.90;;;;;;5069135;28;20299;-75
2021/05/05 11:18:29;;;;;;;4.03;1.60;;;6.80;99.90;;;;;;5073663;28;20039;-72
2021/05/05 11:21:02;;;;;;;4.47;1.90;;;7.10;99.90;;;;;;5068561;28;20028;-73
2021/05/05 11:23:38;;;;;;;3.40;1.73;;;7.10;99.90;;;;;;5069376;28;20117;-73
2021/05/05 11:26:13;;;;;;;3.80;1.70;;;7.10;99.90;;;;;;5068979;28;20043;-73
2021/05/05 11:29:00;;;;;;;5.32;2.47;;;7.30;99.90;;;;;;5069261;28;20539;-73
2021/05/05 11:31:44;;;;;;;4.30;2.00;;;7.40;99.90;;;;;;5068755;28;20036;-73
2021/05/05 11:34:28;;;;;;;6.63;1.90;;;7.60;99.90;;;;;;5068082;28;21325;-73
2021/05/05 11:37:00;;;;;;;4.63;1.70;;;7.60;99.90;;;;;;5068313;28;20066;-73
2021/05/05 11:39:32;;;;;;;6.83;1.90;;;7.80;99.90;;;;;;5070164;28;20031;-73
2021/05/05 11:42:08;;;;;;;4.93;2.10;;;8.10;99.90;;;;;;5066731;28;20099;-73
2021/05/05 11:44:45;;;;;;;4.03;1.80;;;8.30;99.90;;;;;;5066571;28;20418;-76
2021/05/05 11:47:18;;;;;;;5.87;2.10;;;8.50;99.90;;;;;;5050005;28;20078;-72
2021/05/05 11:49:46;;;;;;;6.87;1.90;;;8.70;99.90;;;;;;5069093;28;20047;-70
2021/05/05 11:52:24;;;;;;;4.67;1.87;;;8.90;99.90;;;;;;5069510;28;20150;-75
2021/05/05 11:55:03;;;;;;;7.07;1.90;;;9.00;99.90;;;;;;5069161;28;20029;-75
2021/05/05 11:57:31;;;;;;;6.67;1.97;;;9.10;99.90;;;;;;5068276;28;20059;-75
2021/05/05 12:00:11;;;;;;;4.67;1.90;;;9.30;99.90;;;;;;5068664;28;20036;-75
2021/05/05 12:02:51;;;;;;;5.23;2.37;;;9.60;99.90;;;;;;5068616;28;20097;-75
2021/05/05 12:05:30;;;;;;;4.47;1.93;;;9.60;99.90;;;;;;5068598;28;20021;-75
2021/05/05 12:08:09;;;;;;;5.20;1.57;;;9.70;99.90;;;;;;5068530;28;20021;-74
2021/05/05 12:10:43;;;;;;;7.73;2.30;;;10.00;99.90;;;;;;5051693;28;20035;-75
2021/05/05 12:13:11;;;;;;;6.47;1.95;;;10.20;99.90;;;;;;5069120;28;20032;-79
2021/05/05 12:15:40;;;;;;;8.90;2.00;;;10.50;99.90;;;;;;5071301;28;20384;-79
2021/05/05 12:18:21;;;;;;;5.63;1.70;;;10.90;99.90;;;;;;5074985;28;20059;-78
2021/05/05 12:20:48;;;;;;;5.63;1.93;;;11.20;99.90;;;;;;5071334;28;20023;-79
2021/05/05 12:23:15;;;;;;;5.37;2.00;;;11.40;99.90;;;;;;5070352;28;20028;-79
2021/05/05 12:25:40;;;;;;;5.33;1.63;;;11.50;99.90;;;;;;5071319;28;20122;-79
2021/05/05 12:28:19;;;;;;;5.40;1.73;;;11.90;99.90;;;;;;5074960;28;20032;-79
2021/05/05 12:30:53;;;;;;;4.57;1.77;;;12.10;99.90;;;;;;5077748;28;20050;-78
2021/05/05 12:33:31;;;;;;;8.02;1.58;;;12.30;99.90;;;;;;5069073;28;20024;-79
2021/05/05 12:36:02;;;;;;;4.13;1.42;;;12.60;99.90;;;;;;5070875;28;20028;-78
2021/05/05 12:38:34;;;;;;;3.78;1.55;;;12.90;99.90;;;;;;5069892;28;20017;-78
2021/05/05 12:41:02;;;;;;;3.50;1.65;;;12.60;99.90;;;;;;5070514;28;20082;-78
2021/05/05 12:43:29;;;;;;;3.78;1.40;;;12.60;99.90;;;;;;5069496;28;20016;-78
2021/05/05 12:45:56;;;;;;;2.92;1.63;;;12.80;99.90;;;;;;5069452;28;20024;-77
2021/05/05 12:48:40;;;;;;;4.35;1.73;;;12.80;99.90;;;;;;5068317;28;20504;-78
2021/05/05 12:51:14;;;;;;;3.55;1.77;;;12.80;99.90;;;;;;5069358;28;20036;-77
2021/05/05 12:53:52;;;;;;;3.20;1.67;;;13.10;99.90;;;;;;5068830;28;20029;-77
2021/05/05 12:56:20;;;;;;;5.28;1.65;;;13.00;99.90;;;;;;5068673;28;20035;-77
2021/05/05 12:58:48;;;;;;;3.05;1.42;;;12.90;99.90;;;;;;5068208;28;20016;-78
2021/05/05 13:01:15;;;;;;;3.10;1.42;;;13.10;99.90;;;;;;5067676;28;20799;-77
2021/05/05 13:03:45;;;;;;;4.05;1.42;;;13.60;99.90;;;;;;5065459;28;20028;-78
2021/05/05 13:06:13;;;;;;;4.85;1.50;;;13.60;99.90;;;;;;5068026;28;20047;-77